Time;durP1;ratioP1;P1;durP2;ratioP2;P2;SDS_P1;SDS_P2;PMS_P1;PMS_P2;Temp;Humidity;BMP_temperature;BMP_pressure;BME280_temperature;BME280_humidity;BME280_pressure;Samples;Min_cycle;Max_cycle;Signal;HPM_P1;HPM_P2
2022/05/23 00:01:49;;;;;;;2.50;1.70;;;;;;;;;;5013479;28;20201;-74
2022/05/23 00:04:16;;;;;;;2.33;1.60;;;;;;;;;;5015819;28;20195;-74
2022/05/23 00:06:42;;;;;;;2.50;1.60;;;;;;;;;;5015691;28;20189;-74
2022/05/23 00:09:11;;;;;;;2.63;1.80;;;;;;;;;;5016440;28;20211;-74
2022/05/23 00:11:37;;;;;;;3.13;1.57;;;;;;;;;;5012154;28;20187;-73
2022/05/23 00:14:04;;;;;;;1.90;1.50;;;;;;;;;;5015953;28;20210;-73
2022/05/23 00:16:37;;;;;;;3.07;1.47;;;;;;;;;;5021660;28;20175;-74
2022/05/23 00:19:04;;;;;;;2.07;1.60;;;;;;;;;;5013539;28;20211;-74
2022/05/23 00:21:30;;;;;;;1.40;1.30;;;;;;;;;;5016609;28;20597;-73
2022/05/23 00:23:56;;;;;;;3.90;1.77;;;;;;;;;;5013430;28;20252;-74
2022/05/23 00:26:22;;;;;;;3.53;1.60;;;;;;;;;;5016566;28;20206;-74
2022/05/23 00:28:49;;;;;;;1.93;1.60;;;;;;;;;;5010737;28;20242;-73
2022/05/23 00:31:16;;;;;;;2.23;1.70;;;;;;;;;;5029761;28;20190;-73
2022/05/23 00:36:28;;;;;;;1.53;1.37;;;;;;;;;;5015197;28;20236;-73
2022/05/23 00:38:54;;;;;;;1.87;1.50;;;;;;;;;;5029335;28;20284;-73
2022/05/23 00:44:20;;;;;;;3.13;1.60;;;;;;;;;;5030817;28;20191;-73
2022/05/23 00:47:08;;;;;;;2.60;1.50;;;;;;;;;;5015367;28;20219;-74
2022/05/23 00:49:36;;;;;;;1.87;1.40;;;;;;;;;;5011936;28;20211;-73
2022/05/23 00:52:06;;;;;;;2.07;1.63;;;;;;;;;;5019492;28;20210;-74
2022/05/23 00:54:38;;;;;;;3.43;1.60;;;;;;;;;;5019287;28;20226;-73
2022/05/23 00:57:04;;;;;;;1.80;1.30;;;;;;;;;;5019384;28;20221;-73
2022/05/23 00:59:32;;;;;;;2.50;1.70;;;;;;;;;;5020605;28;20202;-73
2022/05/23 01:01:59;;;;;;;2.83;1.50;;;;;;;;;;5018817;28;20321;-74
2022/05/23 01:04:36;;;;;;;1.77;1.50;;;;;;;;;;5022306;28;20179;-73
2022/05/23 01:07:03;;;;;;;6.77;1.67;;;;;;;;;;5027387;28;20214;-74
2022/05/23 01:09:30;;;;;;;2.60;1.70;;;;;;;;;;5035239;28;20289;-74
2022/05/23 01:11:57;;;;;;;3.67;1.60;;;;;;;;;;5029730;28;20178;-74
2022/05/23 01:14:24;;;;;;;3.30;1.57;;;;;;;;;;5037728;28;20206;-74
2022/05/23 01:16:51;;;;;;;2.23;1.70;;;;;;;;;;5011366;28;20182;-75
2022/05/23 01:19:17;;;;;;;2.13;1.70;;;;;;;;;;5011491;28;20195;-76
2022/05/23 01:21:53;;;;;;;3.00;1.80;;;;;;;;;;5027292;28;20186;-75
2022/05/23 01:24:24;;;;;;;4.93;1.80;;;;;;;;;;5022654;28;20694;-75
2022/05/23 01:26:55;;;;;;;2.10;1.90;;;;;;;;;;5022625;28;20241;-74
2022/05/23 01:29:31;;;;;;;3.63;2.10;;;;;;;;;;5028019;28;20230;-74
2022/05/23 01:32:07;;;;;;;1.70;1.60;;;;;;;;;;5024151;28;20190;-75
2022/05/23 01:34:35;;;;;;;2.90;2.03;;;;;;;;;;5018428;28;20706;-75
2022/05/23 01:37:09;;;;;;;2.80;2.03;;;;;;;;;;5024260;28;20195;-75
2022/05/23 01:39:48;;;;;;;2.13;1.80;;;;;;;;;;5018440;28;20797;-75
2022/05/23 01:42:14;;;;;;;3.57;1.90;;;;;;;;;;5022601;28;20581;-75
2022/05/23 01:44:40;;;;;;;2.70;1.83;;;;;;;;;;5027735;28;20261;-75
2022/05/23 01:47:16;;;;;;;3.43;1.87;;;;;;;;;;5023424;28;20262;-74
2022/05/23 01:50:00;;;;;;;2.63;1.90;;;;;;;;;;5024699;28;20214;-75
2022/05/23 01:52:46;;;;;;;2.43;2.00;;;;;;;;;;5023237;28;20546;-75
2022/05/23 01:55:17;;;;;;;2.33;1.90;;;;;;;;;;5024348;28;20296;-75
2022/05/23 01:57:59;;;;;;;2.20;1.80;;;;;;;;;;5021770;28;20187;-75
2022/05/23 02:03:11;;;;;;;3.17;2.10;;;;;;;;;;5023914;28;20638;-74
2022/05/23 02:05:37;;;;;;;2.37;1.90;;;;;;;;;;5025279;28;20260;-75
2022/05/23 02:08:03;;;;;;;2.80;1.80;;;;;;;;;;5018971;28;20179;-75
2022/05/23 02:10:30;;;;;;;1.90;1.80;;;;;;;;;;5022267;28;20186;-75
2022/05/23 02:13:00;;;;;;;3.10;1.93;;;;;;;;;;5029060;28;20193;-75
2022/05/23 02:15:32;;;;;;;2.73;1.73;;;;;;;;;;5023896;28;20221;-75
2022/05/23 02:18:16;;;;;;;2.90;2.00;;;;;;;;;;5023973;28;20295;-74
2022/05/23 02:20:44;;;;;;;2.40;1.97;;;;;;;;;;5022654;28;20189;-75
2022/05/23 02:23:10;;;;;;;4.07;2.07;;;;;;;;;;5024528;28;20685;-75
2022/05/23 02:25:37;;;;;;;3.57;2.17;;;;;;;;;;5020298;28;20191;-75
2022/05/23 02:28:22;;;;;;;2.60;1.87;;;;;;;;;;5020619;28;20240;-75
2022/05/23 02:30:49;;;;;;;3.37;1.83;;;;;;;;;;5020200;28;20270;-75
2022/05/23 02:33:38;;;;;;;3.00;2.10;;;;;;;;;;5025112;28;20190;-74
2022/05/23 02:36:21;;;;;;;2.83;1.90;;;;;;;;;;5020013;28;20202;-75
2022/05/23 02:38:48;;;;;;;5.07;2.20;;;;;;;;;;5023525;28;20954;-75
2022/05/23 02:41:14;;;;;;;2.47;1.90;;;;;;;;;;5025025;28;20658;-75
2022/05/23 02:43:40;;;;;;;2.43;1.90;;;;;;;;;;5025922;28;20182;-76
2022/05/23 02:46:07;;;;;;;2.00;1.80;;;;;;;;;;5023658;28;20187;-74
2022/05/23 02:48:35;;;;;;;3.73;2.10;;;;;;;;;;5019304;28;20214;-75
2022/05/23 02:51:05;;;;;;;2.87;1.83;;;;;;;;;;5020844;28;20183;-75
2022/05/23 02:53:31;;;;;;;2.67;2.00;;;;;;;;;;5019676;28;20924;-75
2022/05/23 02:55:59;;;;;;;5.50;1.93;;;;;;;;;;5021719;28;20213;-75
2022/05/23 02:58:25;;;;;;;1.80;1.70;;;;;;;;;;5025324;28;20202;-75
2022/05/23 03:00:51;;;;;;;2.10;1.90;;;;;;;;;;5032579;28;20688;-75
2022/05/23 03:03:18;;;;;;;2.37;2.00;;;;;;;;;;5028539;28;20194;-75
2022/05/23 03:05:49;;;;;;;1.90;1.70;;;;;;;;;;5022275;28;20222;-75
2022/05/23 03:08:17;;;;;;;3.43;1.90;;;;;;;;;;5016946;28;20186;-75
2022/05/23 03:10:44;;;;;;;1.93;1.73;;;;;;;;;;5019657;28;20187;-75
2022/05/23 03:13:11;;;;;;;1.77;1.67;;;;;;;;;;5020041;28;20650;-75
2022/05/23 03:15:37;;;;;;;3.03;2.03;;;;;;;;;;5014671;28;20210;-75
2022/05/23 03:18:04;;;;;;;2.37;1.67;;;;;;;;;;5033258;28;20186;-75
2022/05/23 03:20:32;;;;;;;2.00;1.80;;;;;;;;;;5020869;28;20226;-75
2022/05/23 03:28:34;;;;;;;3.13;1.90;;;;;;;;;;5019806;28;20209;-75
2022/05/23 03:31:03;;;;;;;3.37;1.97;;;;;;;;;;5025539;28;20603;-75
2022/05/23 03:33:29;;;;;;;2.60;1.93;;;;;;;;;;5018800;28;20190;-74
2022/05/23 03:35:55;;;;;;;3.20;2.20;;;;;;;;;;5023092;28;20210;-75
2022/05/23 03:38:22;;;;;;;2.03;1.83;;;;;;;;;;5012113;28;20194;-75
2022/05/23 03:40:49;;;;;;;2.77;1.90;;;;;;;;;;5021541;28;20187;-75
2022/05/23 03:43:16;;;;;;;2.57;2.10;;;;;;;;;;5024523;28;20178;-75
2022/05/23 03:45:43;;;;;;;2.60;1.97;;;;;;;;;;5024088;28;20924;-75
2022/05/23 03:48:11;;;;;;;3.57;2.00;;;;;;;;;;5023513;28;20237;-75
2022/05/23 03:50:38;;;;;;;3.33;2.30;;;;;;;;;;5021651;28;20178;-75
2022/05/23 03:53:07;;;;;;;2.97;2.20;;;;;;;;;;5021981;28;20592;-75
2022/05/23 03:55:35;;;;;;;3.07;1.90;;;;;;;;;;5018837;28;20222;-76
2022/05/23 03:58:15;;;;;;;3.07;2.10;;;;;;;;;;5026983;28;20179;-78
2022/05/23 04:00:48;;;;;;;3.07;1.83;;;;;;;;;;5026047;28;20190;-76
2022/05/23 04:03:15;;;;;;;2.30;1.90;;;;;;;;;;5026470;28;20748;-77
2022/05/23 04:05:42;;;;;;;5.10;1.90;;;;;;;;;;5026957;28;20249;-76
2022/05/23 04:08:13;;;;;;;3.43;2.33;;;;;;;;;;5019954;28;20217;-76
2022/05/23 04:10:44;;;;;;;7.73;2.67;;;;;;;;;;5018292;28;20187;-76
2022/05/23 04:13:13;;;;;;;4.47;3.13;;;;;;;;;;5017201;28;20187;-76
2022/05/23 04:15:41;;;;;;;4.13;3.20;;;;;;;;;;5021689;28;20256;-75
2022/05/23 04:18:08;;;;;;;5.60;3.70;;;;;;;;;;5016926;28;20191;-77
2022/05/23 04:20:35;;;;;;;5.13;3.50;;;;;;;;;;5018635;28;20185;-76
2022/05/23 04:23:09;;;;;;;5.60;3.70;;;;;;;;;;5022490;28;20258;-76
2022/05/23 04:25:41;;;;;;;3.80;3.23;;;;;;;;;;5046794;28;20186;-76
2022/05/23 04:28:08;;;;;;;3.97;3.57;;;;;;;;;;5024067;28;20242;-76
2022/05/23 04:30:40;;;;;;;4.50;3.27;;;;;;;;;;5021200;28;21045;-76
2022/05/23 04:35:54;;;;;;;5.40;3.70;;;;;;;;;;5022145;28;20269;-76
2022/05/23 04:38:24;;;;;;;3.60;3.23;;;;;;;;;;5022697;28;20656;-76
2022/05/23 04:40:52;;;;;;;5.00;3.80;;;;;;;;;;5021024;28;20874;-76
2022/05/23 04:43:18;;;;;;;4.30;3.90;;;;;;;;;;5025701;28;20198;-76
2022/05/23 04:45:48;;;;;;;6.07;4.00;;;;;;;;;;5019872;28;20191;-76
2022/05/23 04:51:22;;;;;;;4.90;3.90;;;;;;;;;;5036523;28;20522;-76
2022/05/23 04:53:53;;;;;;;5.90;4.00;;;;;;;;;;5024873;28;20296;-76
2022/05/23 04:56:21;;;;;;;5.23;4.00;;;;;;;;;;5026606;28;20226;-76
2022/05/23 04:58:49;;;;;;;5.30;4.00;;;;;;;;;;5024813;28;20202;-76
2022/05/23 05:01:16;;;;;;;4.97;4.47;;;;;;;;;;5022978;28;20551;-75
2022/05/23 05:03:42;;;;;;;6.20;4.60;;;;;;;;;;5023121;28;20179;-76
2022/05/23 05:06:08;;;;;;;6.23;4.90;;;;;;;;;;5019813;28;20280;-76
2022/05/23 05:08:35;;;;;;;7.13;5.77;;;;;;;;;;5024605;28;20214;-76
2022/05/23 05:11:05;;;;;;;7.93;5.70;;;;;;;;;;5024297;28;20248;-75
2022/05/23 05:13:39;;;;;;;6.70;4.87;;;;;;;;;;5027616;28;20766;-75
2022/05/23 05:16:07;;;;;;;7.63;5.23;;;;;;;;;;5025974;28;20246;-75
2022/05/23 05:18:37;;;;;;;7.47;5.77;;;;;;;;;;5024518;28;20286;-75
2022/05/23 05:21:34;;;;;;;6.40;4.67;;;;;;;;;;5041835;28;20241;-75
2022/05/23 05:24:24;;;;;;;5.60;4.40;;;;;;;;;;5025004;28;20194;-75
2022/05/23 05:27:08;;;;;;;4.83;4.20;;;;;;;;;;5029792;28;20180;-73
2022/05/23 05:29:34;;;;;;;4.67;4.27;;;;;;;;;;5020589;28;20202;-73
2022/05/23 05:32:06;;;;;;;7.20;4.40;;;;;;;;;;5019630;28;20191;-72
2022/05/23 05:34:32;;;;;;;9.67;4.73;;;;;;;;;;5021466;28;20215;-71
2022/05/23 05:37:02;;;;;;;5.20;4.07;;;;;;;;;;5019554;28;20183;-72
2022/05/23 05:39:32;;;;;;;6.50;4.00;;;;;;;;;;5017491;28;20202;-76
2022/05/23 05:42:09;;;;;;;4.40;3.90;;;;;;;;;;5016750;28;20588;-73
2022/05/23 05:44:42;;;;;;;4.20;3.77;;;;;;;;;;5024762;28;20190;-73
2022/05/23 05:47:11;;;;;;;4.80;3.20;;;;;;;;;;5039649;28;20189;-73
2022/05/23 05:49:40;;;;;;;6.47;3.30;;;;;;;;;;5022049;28;20213;-73
2022/05/23 05:52:13;;;;;;;5.63;3.53;;;;;;;;;;5005264;28;20199;-73
2022/05/23 05:54:50;;;;;;;4.00;3.60;;;;;;;;;;5019079;28;20299;-73
2022/05/23 05:57:16;;;;;;;4.60;3.10;;;;;;;;;;5020081;28;20190;-74
2022/05/23 05:59:43;;;;;;;3.73;2.80;;;;;;;;;;5021310;28;20210;-73
2022/05/23 06:02:09;;;;;;;6.43;3.27;;;;;;;;;;5020606;28;20203;-73
2022/05/23 06:04:36;;;;;;;3.47;2.90;;;;;;;;;;5024216;28;20198;-74
2022/05/23 06:12:51;;;;;;;5.50;2.93;;;;;;;;;;5040895;28;20199;-74
2022/05/23 06:15:36;;;;;;;3.83;2.37;;;;;;;;;;5023829;28;20214;-74
2022/05/23 06:18:03;;;;;;;3.40;2.40;;;;;;;;;;5026990;28;20187;-73
2022/05/23 06:20:29;;;;;;;3.20;2.50;;;;;;;;;;5019408;28;20544;-74
2022/05/23 06:22:57;;;;;;;3.20;2.60;;;;;;;;;;5041071;28;20190;-74
2022/05/23 06:25:24;;;;;;;3.03;2.50;;;;;;;;;;5026242;28;20198;-74
2022/05/23 06:27:52;;;;;;;4.70;2.30;;;;;;;;;;5023197;28;20640;-74
2022/05/23 06:30:22;;;;;;;3.20;2.33;;;;;;;;;;5039135;28;20252;-73
2022/05/23 06:33:01;;;;;;;4.30;2.80;;;;;;;;;;5024866;28;20194;-73
2022/05/23 06:35:44;;;;;;;3.07;2.70;;;;;;;;;;5025086;28;20217;-74
2022/05/23 06:38:10;;;;;;;3.13;2.60;;;;;;;;;;5023160;28;20186;-74
2022/05/23 06:40:36;;;;;;;4.27;2.60;;;;;;;;;;5022858;28;20207;-74
2022/05/23 06:43:26;;;;;;;2.50;2.30;;;;;;;;;;5021268;28;20927;-74
2022/05/23 06:45:56;;;;;;;4.80;2.77;;;;;;;;;;5018068;28;20274;-74
2022/05/23 06:48:45;;;;;;;3.50;2.40;;;;;;;;;;5022851;28;20233;-73
2022/05/23 06:51:18;;;;;;;2.67;2.20;;;;;;;;;;5023932;28;20198;-74
2022/05/23 06:53:47;;;;;;;3.30;2.37;;;;;;;;;;5022790;28;20262;-74
2022/05/23 06:56:23;;;;;;;4.33;2.37;;;;;;;;;;5023076;28;20245;-75
2022/05/23 06:58:58;;;;;;;3.27;2.17;;;;;;;;;;5023440;28;20482;-74
2022/05/23 07:01:30;;;;;;;3.30;2.83;;;;;;;;;;5025282;28;20228;-74
2022/05/23 07:12:19;;;;;;;3.10;2.27;;;;;;;;;;5038018;28;20196;-74
2022/05/23 07:13:03;;;;;;;4.10;2.30;;;;;;;;;;5022448;28;20194;-76
2022/05/23 07:15:38;;;;;;;2.40;2.20;;;;;;;;;;5022366;28;20202;-77
2022/05/23 07:18:06;;;;;;;3.67;2.90;;;;;;;;;;4992924;28;20553;-77
2022/05/23 07:20:55;;;;;;;6.30;3.40;;;;;;;;;;5027114;28;20777;-78
2022/05/23 07:23:27;;;;;;;3.93;3.53;;;;;;;;;;5025581;28;20263;-78
2022/05/23 07:26:01;;;;;;;4.70;3.63;;;;;;;;;;5025402;28;20186;-77
2022/05/23 07:28:48;;;;;;;5.33;4.00;;;;;;;;;;5022444;28;20241;-75
2022/05/23 07:31:17;;;;;;;7.43;4.40;;;;;;;;;;5024462;28;20194;-77
2022/05/23 07:33:44;;;;;;;5.33;3.60;;;;;;;;;;5019848;28;20194;-77
2022/05/23 07:36:18;;;;;;;4.10;3.60;;;;;;;;;;5007395;28;20559;-77
2022/05/23 07:38:45;;;;;;;4.27;3.43;;;;;;;;;;5022729;28;20267;-74
2022/05/23 07:41:20;;;;;;;4.10;3.23;;;;;;;;;;5009685;28;20224;-74
2022/05/23 07:43:50;;;;;;;5.80;3.57;;;;;;;;;;5024058;28;20183;-74
2022/05/23 07:46:17;;;;;;;5.47;3.80;;;;;;;;;;5021953;28;20179;-74
2022/05/23 07:48:48;;;;;;;4.33;3.47;;;;;;;;;;5036264;28;20237;-74
2022/05/23 07:51:16;;;;;;;5.97;3.03;;;;;;;;;;5022998;28;20651;-74
2022/05/23 08:02:11;;;;;;;4.03;3.63;;;;;;;;;;5036190;28;20290;-76
2022/05/23 08:04:42;;;;;;;4.37;3.40;;;;;;;;;;5034248;28;20573;-76
2022/05/23 08:07:09;;;;;;;5.97;3.37;;;;;;;;;;5036576;28;20208;-76
2022/05/23 08:09:41;;;;;;;4.00;3.60;;;;;;;;;;5031850;28;20210;-76
2022/05/23 08:12:11;;;;;;;3.90;3.30;;;;;;;;;;5031229;28;20182;-77
2022/05/23 08:14:38;;;;;;;5.73;3.70;;;;;;;;;;5031608;28;20218;-77
2022/05/23 08:17:14;;;;;;;4.03;3.13;;;;;;;;;;5028703;28;20181;-77
2022/05/23 08:19:42;;;;;;;4.30;3.60;;;;;;;;;;5031495;28;20224;-78
2022/05/23 08:22:19;;;;;;;4.30;3.90;;;;;;;;;;5031145;28;20224;-77
2022/05/23 08:24:58;;;;;;;7.50;4.23;;;;;;;;;;5016071;28;20190;-76
2022/05/23 08:27:25;;;;;;;5.97;3.97;;;;;;;;;;5032415;28;20220;-77
2022/05/23 08:29:52;;;;;;;6.97;3.90;;;;;;;;;;5032512;28;20210;-77
2022/05/23 08:32:20;;;;;;;7.87;4.30;;;;;;;;;;5044989;28;20197;-77
2022/05/23 08:34:55;;;;;;;6.80;4.10;;;;;;;;;;5032394;28;20213;-77
2022/05/23 08:37:21;;;;;;;6.73;4.20;;;;;;;;;;5031435;28;20185;-77
2022/05/23 08:39:48;;;;;;;4.73;3.50;;;;;;;;;;5031073;28;20201;-77
2022/05/23 08:42:28;;;;;;;4.53;3.20;;;;;;;;;;5029314;28;20201;-77
2022/05/23 08:45:11;;;;;;;4.30;3.60;;;;;;;;;;5029664;28;20191;-77
2022/05/23 08:48:01;;;;;;;7.33;3.90;;;;;;;;;;5029541;28;20209;-77
2022/05/23 08:50:56;;;;;;;4.93;3.87;;;;;;;;;;5028791;28;20334;-76
2022/05/23 08:53:28;;;;;;;5.67;3.57;;;;;;;;;;5041270;28;20203;-77
2022/05/23 08:56:24;;;;;;;3.50;3.20;;;;;;;;;;5031786;28;20201;-76
2022/05/23 08:59:28;;;;;;;5.67;3.87;;;;;;;;;;5016629;28;20218;-77
2022/05/23 09:02:00;;;;;;;5.50;3.40;;;;;;;;;;5029412;28;20209;-77
2022/05/23 09:04:32;;;;;;;5.10;3.80;;;;;;;;;;5009344;28;20191;-78
2022/05/23 09:07:00;;;;;;;6.20;3.93;;;;;;;;;;5026117;28;20183;-77
2022/05/23 09:09:30;;;;;;;4.70;3.77;;;;;;;;;;5026224;28;20187;-78
2022/05/23 09:12:01;;;;;;;4.77;3.33;;;;;;;;;;5031573;28;21188;-77
2022/05/23 09:14:29;;;;;;;3.60;3.30;;;;;;;;;;5026493;28;20221;-79
2022/05/23 09:16:57;;;;;;;3.30;3.00;;;;;;;;;;5026475;28;20179;-78
2022/05/23 09:19:33;;;;;;;5.47;3.17;;;;;;;;;;5030093;28;20202;-78
2022/05/23 09:22:13;;;;;;;4.53;2.90;;;;;;;;;;5030427;28;20217;-78
2022/05/23 09:24:45;;;;;;;3.43;3.00;;;;;;;;;;5030092;28;20185;-78
2022/05/23 09:27:17;;;;;;;4.77;3.10;;;;;;;;;;5033212;28;20241;-78
2022/05/23 09:29:44;;;;;;;4.47;3.30;;;;;;;;;;5035859;28;20255;-78
2022/05/23 09:32:13;;;;;;;5.60;3.33;;;;;;;;;;5037433;28;20642;-78
2022/05/23 09:34:49;;;;;;;4.40;3.00;;;;;;;;;;5045637;28;20206;-78
2022/05/23 09:37:22;;;;;;;5.77;3.20;;;;;;;;;;5034303;28;20209;-78
2022/05/23 09:39:54;;;;;;;3.90;2.50;;;;;;;;;;5040876;28;20257;-78
2022/05/23 09:48:07;;;;;;;4.47;3.03;;;;;;;;;;5047104;28;20655;-78
2022/05/23 09:50:38;;;;;;;4.17;2.83;;;;;;;;;;5033608;28;20651;-80
2022/05/23 09:53:06;;;;;;;5.00;2.70;;;;;;;;;;5029539;28;20666;-78
2022/05/23 09:55:34;;;;;;;3.67;2.63;;;;;;;;;;5030579;28;20277;-79
2022/05/23 09:58:00;;;;;;;3.03;2.57;;;;;;;;;;5042913;28;20550;-79
2022/05/23 10:00:35;;;;;;;3.03;2.43;;;;;;;;;;5033280;28;20191;-79
2022/05/23 10:03:06;;;;;;;3.73;2.60;;;;;;;;;;5026818;28;20206;-79
2022/05/23 10:05:32;;;;;;;4.63;2.60;;;;;;;;;;5036489;28;20189;-76
2022/05/23 10:08:00;;;;;;;4.47;2.80;;;;;;;;;;5033096;28;20186;-79
2022/05/23 10:10:28;;;;;;;3.90;2.90;;;;;;;;;;5032798;28;20291;-80
2022/05/23 10:13:13;;;;;;;4.30;2.57;;;;;;;;;;5013256;28;20190;-76
2022/05/23 10:15:44;;;;;;;4.30;2.80;;;;;;;;;;5024118;28;20210;-76
2022/05/23 10:18:16;;;;;;;3.63;2.67;;;;;;;;;;5027619;28;20210;-75
2022/05/23 10:20:44;;;;;;;5.20;2.90;;;;;;;;;;5031341;28;20214;-77
2022/05/23 10:23:15;;;;;;;2.90;2.50;;;;;;;;;;5032547;28;20179;-78
2022/05/23 10:25:53;;;;;;;3.10;2.80;;;;;;;;;;5028938;28;20175;-78
2022/05/23 10:28:23;;;;;;;4.03;2.80;;;;;;;;;;5031897;28;20706;-78
2022/05/23 10:30:56;;;;;;;6.63;3.13;;;;;;;;;;5023347;28;20650;-78
2022/05/23 10:33:27;;;;;;;4.10;3.07;;;;;;;;;;5027191;28;20179;-78
2022/05/23 10:36:12;;;;;;;4.03;3.23;;;;;;;;;;5040849;28;20620;-78
2022/05/23 10:44:24;;;;;;;3.60;2.63;;;;;;;;;;5028072;28;20720;-78
2022/05/23 10:46:54;;;;;;;3.43;2.80;;;;;;;;;;5029447;28;20182;-78
2022/05/23 10:49:32;;;;;;;4.90;2.87;;;;;;;;;;5030476;28;20666;-79
2022/05/23 10:51:58;;;;;;;9.53;3.00;;;;;;;;;;5031333;28;20185;-77
2022/05/23 10:54:41;;;;;;;2.97;2.67;;;;;;;;;;5034108;28;20240;-79
2022/05/23 10:57:20;;;;;;;4.43;3.10;;;;;;;;;;5011722;28;20183;-79
2022/05/23 10:59:47;;;;;;;3.90;2.93;;;;;;;;;;5032838;28;20209;-80
2022/05/23 11:02:13;;;;;;;6.17;2.80;;;;;;;;;;5031466;28;20190;-81
2022/05/23 11:04:58;;;;;;;3.40;3.10;;;;;;;;;;5013267;28;20175;-82
2022/05/23 11:07:47;;;;;;;6.23;3.20;;;;;;;;;;5027915;28;20213;-81
2022/05/23 11:10:28;;;;;;;4.17;3.20;;;;;;;;;;5022836;28;20219;-82
2022/05/23 11:12:54;;;;;;;3.20;2.90;;;;;;;;;;5020431;28;20228;-81
2022/05/23 11:15:27;;;;;;;4.37;2.90;;;;;;;;;;5038228;28;20209;-80
2022/05/23 11:18:12;;;;;;;3.73;3.33;;;;;;;;;;5039672;28;20263;-81
2022/05/23 11:20:41;;;;;;;5.97;3.23;;;;;;;;;;5032186;28;20183;-82
2022/05/23 11:23:25;;;;;;;5.43;3.03;;;;;;;;;;5039247;28;20654;-80
2022/05/23 11:25:54;;;;;;;5.57;3.40;;;;;;;;;;5033801;28;20201;-78
2022/05/23 11:34:09;;;;;;;4.50;3.17;;;;;;;;;;5023761;28;20244;-73
2022/05/23 11:36:57;;;;;;;3.87;3.07;;;;;;;;;;5020122;28;20186;-73
2022/05/23 11:39:41;;;;;;;6.73;3.23;;;;;;;;;;5023605;28;20197;-73
2022/05/23 11:42:13;;;;;;;4.23;3.00;;;;;;;;;;5024366;28;20577;-72
2022/05/23 11:44:49;;;;;;;3.83;3.23;;;;;;;;;;5029399;28;20295;-72
2022/05/23 11:47:18;;;;;;;4.27;3.10;;;;;;;;;;5021438;28;20239;-72
2022/05/23 11:49:48;;;;;;;5.10;3.20;;;;;;;;;;5020963;28;20221;-72
2022/05/23 11:52:37;;;;;;;3.70;3.10;;;;;;;;;;5019351;28;20255;-72
2022/05/23 11:55:04;;;;;;;3.93;2.90;;;;;;;;;;5015423;28;20250;-72
2022/05/23 11:57:31;;;;;;;5.87;3.20;;;;;;;;;;5025092;28;20178;-72
2022/05/23 11:59:57;;;;;;;4.40;3.40;;;;;;;;;;5027250;28;20198;-72
2022/05/23 12:02:26;;;;;;;4.17;3.03;;;;;;;;;;5030144;28;20237;-72
2022/05/23 12:04:54;;;;;;;3.27;2.93;;;;;;;;;;5021256;28;20183;-72
2022/05/23 12:07:41;;;;;;;4.33;3.10;;;;;;;;;;5024641;28;20209;-72
2022/05/23 12:10:22;;;;;;;4.13;2.90;;;;;;;;;;5019705;28;20225;-72
2022/05/23 12:12:49;;;;;;;3.13;2.83;;;;;;;;;;5013283;28;20300;-72
2022/05/23 12:15:34;;;;;;;3.90;3.07;;;;;;;;;;5014322;28;20203;-72
2022/05/23 12:18:01;;;;;;;3.30;2.90;;;;;;;;;;5016276;28;20197;-72
2022/05/23 12:20:29;;;;;;;6.83;3.63;;;;;;;;;;5019596;28;20259;-73
2022/05/23 12:23:10;;;;;;;5.23;3.60;;;;;;;;;;5021307;28;20289;-73
2022/05/23 12:25:36;;;;;;;3.30;3.00;;;;;;;;;;5026820;28;20248;-73
2022/05/23 12:28:16;;;;;;;6.20;3.47;;;;;;;;;;5024668;28;20182;-73
2022/05/23 12:30:44;;;;;;;7.43;3.83;;;;;;;;;;5026169;28;20190;-73
2022/05/23 12:33:28;;;;;;;4.27;3.20;;;;;;;;;;5017687;28;20198;-72
2022/05/23 12:36:23;;;;;;;5.23;3.20;;;;;;;;;;5028188;28;20228;-72
2022/05/23 12:38:55;;;;;;;5.60;3.10;;;;;;;;;;5024452;28;20216;-72
2022/05/23 12:41:42;;;;;;;4.30;3.27;;;;;;;;;;5017948;28;20676;-72
2022/05/23 12:44:27;;;;;;;10.83;3.10;;;;;;;;;;5019185;28;20182;-72
2022/05/23 12:46:54;;;;;;;7.27;3.60;;;;;;;;;;5028399;28;20183;-72
2022/05/23 12:49:23;;;;;;;6.80;3.23;;;;;;;;;;5023820;28;20222;-72
2022/05/23 12:52:02;;;;;;;6.47;3.20;;;;;;;;;;5029711;28;20182;-72
2022/05/23 12:54:32;;;;;;;4.50;3.33;;;;;;;;;;5031207;28;20207;-72
2022/05/23 12:57:05;;;;;;;4.87;3.10;;;;;;;;;;5024104;28;20188;-72
2022/05/23 12:59:47;;;;;;;5.57;3.60;;;;;;;;;;5029665;28;20194;-72
2022/05/23 13:02:25;;;;;;;5.20;3.40;;;;;;;;;;5023216;28;20328;-72
2022/05/23 13:04:59;;;;;;;7.20;3.33;;;;;;;;;;5025440;28;20216;-72
2022/05/23 13:07:30;;;;;;;5.57;3.10;;;;;;;;;;5026358;28;20192;-72
2022/05/23 13:10:05;;;;;;;7.60;3.50;;;;;;;;;;5024507;28;20256;-72
2022/05/23 13:12:39;;;;;;;4.97;3.10;;;;;;;;;;5027360;28;20582;-72
2022/05/23 13:15:05;;;;;;;4.63;3.07;;;;;;;;;;5028913;28;20263;-75
2022/05/23 13:17:35;;;;;;;4.73;3.10;;;;;;;;;;5025018;28;20544;-75
2022/05/23 13:22:46;;;;;;;5.53;3.60;;;;;;;;;;5027379;28;20549;-75
2022/05/23 13:25:12;;;;;;;5.03;3.50;;;;;;;;;;5029680;28;20186;-75
2022/05/23 13:27:46;;;;;;;5.80;3.40;;;;;;;;;;5029217;28;20295;-74
2022/05/23 13:30:20;;;;;;;6.97;3.20;;;;;;;;;;5026227;28;20234;-75
2022/05/23 13:33:11;;;;;;;4.30;3.20;;;;;;;;;;5029485;28;20197;-74
2022/05/23 13:35:39;;;;;;;5.80;3.20;;;;;;;;;;5028651;28;20292;-75
2022/05/23 13:38:22;;;;;;;4.93;3.23;;;;;;;;;;5028409;28;20209;-74
2022/05/23 13:40:50;;;;;;;5.43;3.13;;;;;;;;;;5022850;28;20703;-73
2022/05/23 13:43:18;;;;;;;5.63;3.40;;;;;;;;;;5025066;28;20213;-73
2022/05/23 13:45:45;;;;;;;5.53;3.30;;;;;;;;;;5026931;28;20186;-73
2022/05/23 13:48:23;;;;;;;6.33;3.20;;;;;;;;;;5024477;28;20191;-73
2022/05/23 13:50:53;;;;;;;5.30;3.00;;;;;;;;;;5021335;28;20191;-74
2022/05/23 13:53:22;;;;;;;7.20;2.70;;;;;;;;;;5024299;28;20194;-74
2022/05/23 13:55:49;;;;;;;6.27;3.53;;;;;;;;;;5024417;28;20213;-75
2022/05/23 13:58:23;;;;;;;6.33;3.10;;;;;;;;;;5026862;28;20193;-73
2022/05/23 14:00:52;;;;;;;4.93;3.00;;;;;;;;;;5025342;28;20699;-73
2022/05/23 14:03:29;;;;;;;5.17;3.10;;;;;;;;;;5005643;28;20258;-73
2022/05/23 14:05:56;;;;;;;3.30;2.90;;;;;;;;;;5022744;28;20669;-73
2022/05/23 14:08:36;;;;;;;7.97;3.23;;;;;;;;;;5023399;28;20246;-73
2022/05/23 14:11:08;;;;;;;4.97;2.90;;;;;;;;;;5021067;28;21005;-73
2022/05/23 14:13:34;;;;;;;5.07;2.80;;;;;;;;;;5025142;28;20209;-73
2022/05/23 14:16:01;;;;;;;5.80;2.70;;;;;;;;;;5022518;28;20245;-73
2022/05/23 14:18:32;;;;;;;4.50;2.80;;;;;;;;;;5023452;28;20273;-74
2022/05/23 14:20:58;;;;;;;6.17;2.87;;;;;;;;;;5019609;28;20176;-73
2022/05/23 14:23:28;;;;;;;4.67;2.73;;;;;;;;;;5021145;28;20183;-73
2022/05/23 14:25:54;;;;;;;7.70;2.90;;;;;;;;;;5021110;28;20691;-73
2022/05/23 14:28:22;;;;;;;4.87;2.40;;;;;;;;;;5021889;28;20196;-73
2022/05/23 14:30:49;;;;;;;4.20;2.40;;;;;;;;;;5020881;28;20180;-73
2022/05/23 14:33:21;;;;;;;7.40;2.97;;;;;;;;;;5021472;28;20197;-73
2022/05/23 14:35:52;;;;;;;4.70;2.70;;;;;;;;;;5023721;28;20307;-73
2022/05/23 14:38:27;;;;;;;5.33;2.70;;;;;;;;;;5023412;28;20184;-73
2022/05/23 14:40:56;;;;;;;4.93;2.60;;;;;;;;;;5023091;28;20249;-73
2022/05/23 14:43:26;;;;;;;7.40;2.93;;;;;;;;;;5020754;28;20189;-73
2022/05/23 14:45:54;;;;;;;8.73;2.80;;;;;;;;;;5018888;28;20194;-73
2022/05/23 14:48:26;;;;;;;6.57;2.80;;;;;;;;;;5023533;28;20229;-73
2022/05/23 14:51:11;;;;;;;5.13;2.60;;;;;;;;;;5023071;28;20232;-73
2022/05/23 14:56:29;;;;;;;4.73;2.50;;;;;;;;;;5020112;28;20211;-73
2022/05/23 15:01:41;;;;;;;6.60;2.83;;;;;;;;;;5020219;28;20204;-73
2022/05/23 15:04:09;;;;;;;4.93;2.80;;;;;;;;;;5022348;28;20191;-74
2022/05/23 15:06:35;;;;;;;5.47;2.40;;;;;;;;;;5018790;28;20590;-74
2022/05/23 15:09:01;;;;;;;5.43;2.80;;;;;;;;;;5020740;28;20215;-74
2022/05/23 15:11:30;;;;;;;5.80;2.90;;;;;;;;;;5021337;28;20189;-74
2022/05/23 15:13:58;;;;;;;5.57;2.70;;;;;;;;;;5021987;28;20940;-74
2022/05/23 15:16:29;;;;;;;4.83;2.63;;;;;;;;;;5024268;28;20225;-74
2022/05/23 15:19:01;;;;;;;5.57;2.77;;;;;;;;;;5019914;28;20255;-74
2022/05/23 15:21:27;;;;;;;6.10;3.27;;;;;;;;;;5024344;28;20177;-74
2022/05/23 15:23:54;;;;;;;7.97;2.97;;;;;;;;;;5018653;28;20181;-74
2022/05/23 15:26:21;;;;;;;6.90;2.77;;;;;;;;;;5013959;28;20301;-74
2022/05/23 15:28:51;;;;;;;5.97;2.80;;;;;;;;;;5023875;28;20370;-74
2022/05/23 15:31:18;;;;;;;12.07;3.30;;;;;;;;;;5020399;28;20183;-74
2022/05/23 15:33:45;;;;;;;16.03;3.90;;;;;;;;;;5016431;28;20188;-74
2022/05/23 15:36:11;;;;;;;5.63;3.17;;;;;;;;;;5021233;28;20283;-74
2022/05/23 15:38:37;;;;;;;5.97;3.60;;;;;;;;;;5021898;28;20685;-74
2022/05/23 15:41:04;;;;;;;4.83;2.93;;;;;;;;;;5022091;28;20180;-74
2022/05/23 15:43:31;;;;;;;4.83;2.90;;;;;;;;;;5028258;28;20177;-74
2022/05/23 15:45:58;;;;;;;11.63;3.30;;;;;;;;;;5025417;28;20315;-74
2022/05/23 15:48:28;;;;;;;6.20;3.63;;;;;;;;;;5024993;28;20265;-74
2022/05/23 15:50:54;;;;;;;5.87;3.10;;;;;;;;;;5024657;28;20193;-73
2022/05/23 15:53:20;;;;;;;7.10;3.60;;;;;;;;;;5020422;28;20717;-73
2022/05/23 15:55:50;;;;;;;7.77;3.60;;;;;;;;;;5017547;28;20211;-73
2022/05/23 15:58:17;;;;;;;6.00;4.10;;;;;;;;;;5021310;28;20182;-73
2022/05/23 16:00:44;;;;;;;5.83;3.60;;;;;;;;;;5021918;28;20197;-73
2022/05/23 16:03:10;;;;;;;6.50;3.50;;;;;;;;;;5016879;28;20756;-73
2022/05/23 16:05:38;;;;;;;7.97;3.57;;;;;;;;;;5021763;28;20788;-73
2022/05/23 16:08:05;;;;;;;7.57;4.00;;;;;;;;;;5017342;28;20180;-73
2022/05/23 16:10:32;;;;;;;23.70;4.50;;;;;;;;;;5020516;28;20295;-73
2022/05/23 16:13:05;;;;;;;8.43;4.00;;;;;;;;;;5018412;28;20193;-73
2022/05/23 16:15:32;;;;;;;9.80;4.10;;;;;;;;;;5026020;28;20215;-73